Celebrity Century — 9HJI9 — position and weather

sailwx.info

Track history (hours):
 
Tides and Currents Weather Stations Pressure Air Temp Water Temp Dewpoint Dewpoint Depression Visibility Wind Speed Wind Dir Waves Ship Positions

Celebrity Century

Last reported at 2016-Dec-04 09:19 UTC. Time now 2016-Dec-08 06:00 UTC.
Position N 31°18' E 121°46'.

; draft 8 m.

Type: Ship. MMSI: 249054000.

Date/timePositionNaut miles runAvg speedWind from/ knotsBaromVisibWave heightAir tempDewpointWater temp
2016-Dec-04 09:19N 31°18' E 121°46'912.2
2016-Dec-04 08:33N 31°22' E 121°37'6 5.9
2016-Dec-04 07:33N 31°25' E 121°30'0 0.0
2016-Dec-04 02:31N 31°25' E 121°30'0 0.0
2016-Dec-04 01:30N 31°25' E 121°30'0 0.0
2016-Dec-04 00:31N 31°25' E 121°30'0 0.0
2016-Dec-03 23:34N 31°25' E 121°30'7 7.3
2016-Dec-03 22:33N 31°22' E 121°38'1211.8
2016-Dec-03 21:31N 31°16' E 121°51'  
2016-Nov-30 09:06N 31°18' E 121°47'713.4
2016-Nov-30 08:33N 31°21' E 121°39'9 8.7
2016-Nov-30 07:33N 31°25' E 121°30'0 0.0
2016-Nov-30 02:12N 31°25' E 121°30'0 0.0
2016-Nov-30 01:33N 31°25' E 121°30'4 4.4
2016-Nov-30 00:33N 31°23' E 121°35'1211.9
2016-Nov-29 23:33N 31°18' E 121°47'  
2016-Nov-26 09:07N 31°19' E 121°45'712.7
2016-Nov-26 08:33N 31°22' E 121°38'7 7.0
2016-Nov-26 07:34N 31°25' E 121°30'0 0.0
2016-Nov-26 06:34N 31°25' E 121°30'0 0.0
2016-Nov-26 05:33N 31°25' E 121°30'0 0.0
2016-Nov-26 04:33N 31°25' E 121°30'0 0.0
2016-Nov-26 03:34N 31°25' E 121°30'0 0.0
2016-Nov-26 02:28N 31°25' E 121°30'0 0.0
2016-Nov-26 01:33N 31°25' E 121°30'0 0.0
2016-Nov-26 00:28N 31°25' E 121°30'0 0.0
2016-Nov-25 23:34N 31°25' E 121°30'4 3.8
2016-Nov-25 22:33N 31°24' E 121°34'1212.0
2016-Nov-25 21:33N 31°18' E 121°47'  
Track history (hours):
 
Tides and Currents Weather Stations Pressure Air Temp Water Temp Dewpoint Dewpoint Depression Visibility Wind Speed Wind Dir Waves Ship Positions

Celebrity Century

Last reported at 2016-Dec-04 09:19 UTC. Time now 2016-Dec-08 06:00 UTC.
Position N 31°18' E 121°46'.

; draft 8 m.

Type: Ship. MMSI: 249054000.

Date/timePositionNaut miles runAvg speedWind from/ knotsBaromVisibWave heightAir tempDewpointWater temp
2016-Dec-04 09:19N 31°18' E 121°46'912.2
2016-Dec-04 08:33N 31°22' E 121°37'6 5.9
2016-Dec-04 07:33N 31°25' E 121°30'0 0.0
2016-Dec-04 02:31N 31°25' E 121°30'0 0.0
2016-Dec-04 01:30N 31°25' E 121°30'0 0.0
2016-Dec-04 00:31N 31°25' E 121°30'0 0.0
2016-Dec-03 23:34N 31°25' E 121°30'7 7.3
2016-Dec-03 22:33N 31°22' E 121°38'1211.8
2016-Dec-03 21:31N 31°16' E 121°51'  
2016-Nov-30 09:06N 31°18' E 121°47'713.4
2016-Nov-30 08:33N 31°21' E 121°39'9 8.7
2016-Nov-30 07:33N 31°25' E 121°30'0 0.0
2016-Nov-30 02:12N 31°25' E 121°30'0 0.0
2016-Nov-30 01:33N 31°25' E 121°30'4 4.4
2016-Nov-30 00:33N 31°23' E 121°35'1211.9
2016-Nov-29 23:33N 31°18' E 121°47'  
2016-Nov-26 09:07N 31°19' E 121°45'712.7
2016-Nov-26 08:33N 31°22' E 121°38'7 7.0
2016-Nov-26 07:34N 31°25' E 121°30'0 0.0
2016-Nov-26 06:34N 31°25' E 121°30'0 0.0
2016-Nov-26 05:33N 31°25' E 121°30'0 0.0
2016-Nov-26 04:33N 31°25' E 121°30'0 0.0
2016-Nov-26 03:34N 31°25' E 121°30'0 0.0
2016-Nov-26 02:28N 31°25' E 121°30'0 0.0
2016-Nov-26 01:33N 31°25' E 121°30'0 0.0
2016-Nov-26 00:28N 31°25' E 121°30'0 0.0
2016-Nov-25 23:34N 31°25' E 121°30'4 3.8
2016-Nov-25 22:33N 31°24' E 121°34'1212.0
2016-Nov-25 21:33N 31°18' E 121°47'  

Dump ship's entire track history